Pagrindinis puslapis
METAR-TAF:

METAR-TAF

Oro uostai :

Zinderis, Nigeris

platuma: 13-47N, ilguma: 008-59E, Aukštis: 452 m

Dabartinis oras

Ataskaita buvo paskelbta 11 valandos ir 7 minutes, ne 18:00 UTC
Vėjas 3 kt iš Pietų/Pietvakarių
Temperatūra 39°C
Drėgmė 21%
Slėgis 1010 hPa
Matomumas 10 km arba daugiau
nėra debesų žemiau 1500 m ir nėra kamuolinių lietaus debesų

METAR: DRZR 251800Z 20003KT CAVOK 39/13 Q1010

Laikas: 06:07 (05:07 UTC)

Prognozė

Ataskaita buvo paskelbta 12 valandos ir 7 minutes, ne 17:00 UTC
Prognozė galioja nuo 25 metu 18 UTC su 26 metu 18 UTC
Vėjas 8 kt iš Vakarų/Pietvakarių
Matomumas 10 km arba daugiau
nėra debesų žemiau 1500 m ir nėra kamuolinių lietaus debesų
Laikinai
nuo 26 metu 08 UTC su 26 metu 12 UTC
Matomumas: 3500 m
dulkės
Laikinai
nuo 26 metu 15 UTC su 26 metu 18 UTC
Išsisklaidę debesys ne aukštis 3000 ft
Mažai debesys ne aukštis 4000 ft, Liūtiniai kamuoliniai debesys.
perkūnija,

TAF: DRZR 251700Z 2518/2618 24008KT CAVOK TEMPO 2608/2612 3500 DU TEMPO 2615/2618 TS SCT030 FEW040CB

Orai ataskaitas ir orų prognozės (METAR, TAF).

turimą stotys yra geltonos ir raudonos taškus žemėlapyje.

Perkelti pele per norėdami pamatyti stoties vardą.

Tada spustelėkite, norėdami matyti oro stebėjimo ir prognozės.

Norėdami pakeisti žemėlapį: spustelėkite ant žalios mygtukų su juodo kryžiaus žemyn,; žalią mygtuką su brūkšneliu, jei norite nutolinti; arba žalių rodyklių gretimoms žemėlapius.


METAR-TAF: